Time;durP1;ratioP1;P1;durP2;ratioP2;P2;SDS_P1;SDS_P2;PMS_P1;PMS_P2;Temp;Humidity;BMP_temperature;BMP_pressure;BME280_temperature;BME280_humidity;BME280_pressure;Samples;Min_cycle;Max_cycle;Signal;HPM_P1;HPM_P2
2021/03/23 00:01:05;;;;;;;6.43;3.10;;;;;;;;;;5107263;27;20218;-79
2021/03/23 00:03:36;;;;;;;7.00;3.10;;;;;;;;;;5111275;27;20350;-78
2021/03/23 00:06:06;;;;;;;5.57;3.00;;;;;;;;;;5106539;27;20626;-79
2021/03/23 00:08:37;;;;;;;5.97;3.20;;;;;;;;;;5104960;27;20221;-78
2021/03/23 00:11:06;;;;;;;8.00;3.07;;;;;;;;;;5098683;27;20218;-78
2021/03/23 00:13:36;;;;;;;8.00;3.23;;;;;;;;;;5096909;27;20233;-78
2021/03/23 00:16:03;;;;;;;8.00;3.43;;;;;;;;;;5100993;27;20230;-77
2021/03/23 00:18:31;;;;;;;9.03;3.80;;;;;;;;;;5108516;27;20233;-79
2021/03/23 00:20:59;;;;;;;7.87;3.50;;;;;;;;;;5079441;28;20651;-80
2021/03/23 00:23:27;;;;;;;8.30;3.43;;;;;;;;;;5083829;28;20419;-79
2021/03/23 00:25:55;;;;;;;9.67;4.23;;;;;;;;;;5081057;27;20728;-79
2021/03/23 00:28:24;;;;;;;8.97;3.33;;;;;;;;;;5103732;27;20214;-79
2021/03/23 00:30:52;;;;;;;11.50;3.87;;;;;;;;;;5072087;27;20741;-79
2021/03/23 00:33:20;;;;;;;8.30;3.20;;;;;;;;;;5087165;28;20706;-79
2021/03/23 00:35:50;;;;;;;11.20;3.03;;;;;;;;;;5087015;27;20225;-79
2021/03/23 00:38:17;;;;;;;9.53;3.27;;;;;;;;;;5095910;27;20222;-78
2021/03/23 00:40:45;;;;;;;8.23;3.67;;;;;;;;;;5080384;27;20217;-78
2021/03/23 00:43:14;;;;;;;7.83;3.03;;;;;;;;;;5097135;27;20690;-78
2021/03/23 00:45:43;;;;;;;7.37;3.40;;;;;;;;;;5090009;27;20229;-78
2021/03/23 00:48:12;;;;;;;10.33;3.40;;;;;;;;;;5083221;28;20229;-78
2021/03/23 00:50:41;;;;;;;6.57;3.13;;;;;;;;;;5109426;27;20720;-78
2021/03/23 00:53:09;;;;;;;7.07;3.70;;;;;;;;;;5084119;28;20233;-78
2021/03/23 00:55:37;;;;;;;8.60;3.27;;;;;;;;;;5102448;27;20244;-78
2021/03/23 00:58:05;;;;;;;11.23;3.63;;;;;;;;;;5079943;28;20218;-78
2021/03/23 01:00:34;;;;;;;9.27;3.63;;;;;;;;;;5072522;27;20236;-79
2021/03/23 01:03:02;;;;;;;13.07;3.20;;;;;;;;;;5092673;27;20229;-78
2021/03/23 01:05:32;;;;;;;9.13;3.33;;;;;;;;;;5086736;28;20623;-79
2021/03/23 01:08:01;;;;;;;8.23;3.57;;;;;;;;;;5085484;28;20230;-79
2021/03/23 01:10:30;;;;;;;7.20;3.20;;;;;;;;;;5110864;27;20691;-79
2021/03/23 01:12:57;;;;;;;10.17;3.60;;;;;;;;;;5099759;27;20239;-78
2021/03/23 01:15:29;;;;;;;11.17;3.33;;;;;;;;;;5114252;27;20225;-78
2021/03/23 01:17:57;;;;;;;6.27;3.23;;;;;;;;;;5080390;28;20713;-79
2021/03/23 01:20:26;;;;;;;7.60;3.50;;;;;;;;;;5099430;27;20222;-79
2021/03/23 01:22:55;;;;;;;11.17;3.57;;;;;;;;;;5116958;27;20532;-79
2021/03/23 01:25:23;;;;;;;10.73;3.77;;;;;;;;;;5109290;28;20221;-79
2021/03/23 01:27:51;;;;;;;8.73;3.50;;;;;;;;;;5112495;27;20323;-79
2021/03/23 01:30:21;;;;;;;9.90;3.30;;;;;;;;;;5138132;27;20229;-78
2021/03/23 01:32:49;;;;;;;9.20;3.77;;;;;;;;;;5106830;27;20234;-79
2021/03/23 01:35:18;;;;;;;9.83;3.73;;;;;;;;;;5108550;27;20741;-79
2021/03/23 01:37:46;;;;;;;8.33;3.23;;;;;;;;;;5090658;27;20711;-79
2021/03/23 01:40:16;;;;;;;8.10;3.37;;;;;;;;;;5109343;27;20221;-80
2021/03/23 01:42:45;;;;;;;6.23;3.17;;;;;;;;;;5110241;27;20721;-79
2021/03/23 01:45:25;;;;;;;7.00;3.40;;;;;;;;;;5115653;27;20228;-79
2021/03/23 01:47:54;;;;;;;8.03;3.80;;;;;;;;;;5109207;27;20236;-78
2021/03/23 01:50:24;;;;;;;6.17;3.30;;;;;;;;;;5088245;28;20228;-79
2021/03/23 01:52:56;;;;;;;12.40;3.70;;;;;;;;;;5106496;27;20311;-79
2021/03/23 01:55:24;;;;;;;6.80;3.20;;;;;;;;;;5090088;28;20233;-80
2021/03/23 01:57:52;;;;;;;14.00;3.57;;;;;;;;;;5088767;27;20228;-79
2021/03/23 02:00:25;;;;;;;5.43;3.07;;;;;;;;;;5106335;27;20228;-79
2021/03/23 02:02:53;;;;;;;8.13;3.60;;;;;;;;;;5084025;27;20221;-77
2021/03/23 02:05:33;;;;;;;12.53;3.83;;;;;;;;;;5087335;27;20598;-78
2021/03/23 02:08:03;;;;;;;6.20;3.17;;;;;;;;;;5090988;27;20225;-78
2021/03/23 02:10:31;;;;;;;9.53;3.13;;;;;;;;;;5104428;27;20221;-79
2021/03/23 02:13:00;;;;;;;7.80;3.60;;;;;;;;;;5100945;28;20229;-80
2021/03/23 02:15:27;;;;;;;11.20;3.53;;;;;;;;;;5108853;28;20478;-78
2021/03/23 02:18:17;;;;;;;11.33;3.47;;;;;;;;;;5093210;28;20236;-78
2021/03/23 02:21:04;;;;;;;7.23;3.23;;;;;;;;;;5096286;27;20233;-79
2021/03/23 02:23:34;;;;;;;7.60;3.70;;;;;;;;;;5090039;28;20229;-79
2021/03/23 02:26:03;;;;;;;9.00;4.23;;;;;;;;;;5093053;28;20434;-79
2021/03/23 02:28:38;;;;;;;7.77;3.47;;;;;;;;;;5089503;28;20225;-80
2021/03/23 02:31:06;;;;;;;10.67;3.50;;;;;;;;;;5125924;28;20209;-79
2021/03/23 02:33:34;;;;;;;6.30;3.70;;;;;;;;;;5104683;28;20232;-80
2021/03/23 02:36:04;;;;;;;7.33;3.47;;;;;;;;;;5124952;28;20219;-78
2021/03/23 02:38:31;;;;;;;8.00;3.70;;;;;;;;;;5128217;28;20213;-79
2021/03/23 02:40:59;;;;;;;11.40;4.07;;;;;;;;;;5127205;28;20222;-79
2021/03/23 02:43:27;;;;;;;14.70;3.93;;;;;;;;;;5107034;28;20225;-80
2021/03/23 02:45:56;;;;;;;10.30;3.37;;;;;;;;;;5123268;28;20234;-79
2021/03/23 02:48:24;;;;;;;6.70;3.80;;;;;;;;;;5093995;28;20225;-80
2021/03/23 02:50:52;;;;;;;12.77;4.03;;;;;;;;;;5106261;28;20228;-81
2021/03/23 02:53:20;;;;;;;7.83;4.30;;;;;;;;;;5083425;28;20729;-80
2021/03/23 02:55:48;;;;;;;7.27;4.23;;;;;;;;;;5076874;27;20230;-80
2021/03/23 02:58:16;;;;;;;12.07;4.83;;;;;;;;;;5083174;28;20707;-80
2021/03/23 03:00:44;;;;;;;8.23;3.93;;;;;;;;;;5105832;28;20239;-81
2021/03/23 03:03:12;;;;;;;12.73;4.60;;;;;;;;;;5103936;28;20231;-80
2021/03/23 03:05:53;;;;;;;10.37;4.50;;;;;;;;;;5088300;28;20240;-80
2021/03/23 03:08:22;;;;;;;8.40;5.03;;;;;;;;;;5100498;28;20233;-80
2021/03/23 03:10:50;;;;;;;12.20;5.30;;;;;;;;;;5106153;28;20277;-80
2021/03/23 03:13:22;;;;;;;9.57;5.10;;;;;;;;;;5100753;28;20233;-79
2021/03/23 03:15:51;;;;;;;10.17;4.73;;;;;;;;;;5106686;28;20244;-79
2021/03/23 03:18:19;;;;;;;9.40;5.23;;;;;;;;;;5089400;28;20229;-79
2021/03/23 03:20:47;;;;;;;12.60;5.23;;;;;;;;;;5106558;27;20236;-79
2021/03/23 03:23:16;;;;;;;11.40;4.97;;;;;;;;;;5093516;28;20234;-79
2021/03/23 03:25:45;;;;;;;10.30;5.50;;;;;;;;;;5109739;28;20237;-79
2021/03/23 03:28:13;;;;;;;10.57;5.17;;;;;;;;;;5079745;28;20596;-78
2021/03/23 03:30:41;;;;;;;11.50;4.90;;;;;;;;;;5099552;28;20720;-80
2021/03/23 03:33:15;;;;;;;8.10;4.60;;;;;;;;;;5090345;28;20228;-79
2021/03/23 03:35:43;;;;;;;14.63;5.47;;;;;;;;;;5100619;28;20224;-79
2021/03/23 03:38:11;;;;;;;10.77;4.93;;;;;;;;;;5116428;28;20228;-80
2021/03/23 03:40:41;;;;;;;11.90;5.27;;;;;;;;;;5108786;27;20213;-79
2021/03/23 03:43:12;;;;;;;14.07;5.40;;;;;;;;;;5108648;28;20936;-80
2021/03/23 03:45:39;;;;;;;12.67;5.83;;;;;;;;;;5087546;28;20232;-78
2021/03/23 03:48:08;;;;;;;9.57;5.10;;;;;;;;;;5090719;28;20832;-78
2021/03/23 03:50:36;;;;;;;11.43;5.10;;;;;;;;;;5089969;28;20251;-79
2021/03/23 03:53:03;;;;;;;9.23;5.43;;;;;;;;;;5102226;28;20606;-79
2021/03/23 03:55:33;;;;;;;9.50;5.20;;;;;;;;;;5104161;27;20732;-80
2021/03/23 03:58:01;;;;;;;10.63;5.83;;;;;;;;;;5106789;28;20227;-79
2021/03/23 04:00:31;;;;;;;17.77;6.30;;;;;;;;;;5089370;28;20231;-79
2021/03/23 04:02:59;;;;;;;9.97;5.97;;;;;;;;;;5085552;28;20630;-79
2021/03/23 04:05:29;;;;;;;8.73;5.13;;;;;;;;;;5103050;28;20228;-79
2021/03/23 04:07:57;;;;;;;12.40;5.27;;;;;;;;;;5091505;28;20572;-79
2021/03/23 04:10:26;;;;;;;9.43;6.00;;;;;;;;;;5107909;28;20228;-78
2021/03/23 04:12:54;;;;;;;10.67;5.53;;;;;;;;;;5099546;28;20234;-78
2021/03/23 04:15:25;;;;;;;13.53;5.77;;;;;;;;;;5105923;28;20228;-80
2021/03/23 04:17:54;;;;;;;14.13;5.90;;;;;;;;;;5084484;28;20225;-79
2021/03/23 04:20:22;;;;;;;10.70;6.17;;;;;;;;;;5085271;28;20231;-78
2021/03/23 04:22:50;;;;;;;8.87;6.00;;;;;;;;;;5104005;27;20604;-79
2021/03/23 04:25:20;;;;;;;13.03;5.60;;;;;;;;;;5107103;28;20607;-79
2021/03/23 04:27:48;;;;;;;13.57;6.00;;;;;;;;;;5104378;28;20696;-77
2021/03/23 04:30:17;;;;;;;11.10;5.33;;;;;;;;;;5090792;27;20236;-79
2021/03/23 04:32:45;;;;;;;12.60;6.30;;;;;;;;;;5098997;28;20231;-79
2021/03/23 04:35:24;;;;;;;12.93;5.87;;;;;;;;;;5085762;28;20334;-79
2021/03/23 04:37:52;;;;;;;13.70;6.40;;;;;;;;;;5082071;27;20227;-79
2021/03/23 04:40:20;;;;;;;12.57;6.00;;;;;;;;;;5070918;28;20243;-80
2021/03/23 04:42:48;;;;;;;13.60;5.90;;;;;;;;;;5091087;27;20235;-78
2021/03/23 04:45:18;;;;;;;14.30;6.47;;;;;;;;;;5090781;27;20219;-78
2021/03/23 04:47:47;;;;;;;10.47;6.17;;;;;;;;;;5101207;27;20227;-79
2021/03/23 04:50:17;;;;;;;10.77;5.80;;;;;;;;;;5096573;27;20231;-79
2021/03/23 04:52:45;;;;;;;11.20;5.63;;;;;;;;;;5095443;27;20226;-79
2021/03/23 04:55:14;;;;;;;15.17;5.93;;;;;;;;;;5091594;28;20614;-79
2021/03/23 04:57:42;;;;;;;11.97;6.53;;;;;;;;;;5100132;27;20227;-79
2021/03/23 05:00:12;;;;;;;12.23;6.37;;;;;;;;;;5092971;27;20235;-79
2021/03/23 05:02:40;;;;;;;13.40;6.67;;;;;;;;;;5098650;27;20234;-79
2021/03/23 05:05:09;;;;;;;11.90;6.27;;;;;;;;;;5078366;27;20242;-79
2021/03/23 05:07:37;;;;;;;10.63;6.47;;;;;;;;;;5082655;27;20281;-78
2021/03/23 05:10:10;;;;;;;9.63;6.87;;;;;;;;;;5101820;27;20699;-79
2021/03/23 05:12:38;;;;;;;12.70;6.83;;;;;;;;;;5104009;27;20230;-78
2021/03/23 05:15:09;;;;;;;18.43;7.50;;;;;;;;;;5100115;27;20219;-79
2021/03/23 05:17:37;;;;;;;11.77;6.43;;;;;;;;;;5103515;27;20231;-79
2021/03/23 05:20:07;;;;;;;12.40;6.93;;;;;;;;;;5085941;27;20229;-80
2021/03/23 05:22:35;;;;;;;15.23;6.93;;;;;;;;;;5083483;27;20224;-79
2021/03/23 05:25:03;;;;;;;10.53;6.63;;;;;;;;;;5103118;27;20219;-80
2021/03/23 05:27:33;;;;;;;13.03;6.43;;;;;;;;;;5088830;27;20223;-80
2021/03/23 05:30:00;;;;;;;13.13;7.03;;;;;;;;;;5116739;27;20216;-80
2021/03/23 05:32:28;;;;;;;14.20;6.47;;;;;;;;;;5084950;28;20264;-79
2021/03/23 05:34:55;;;;;;;12.87;6.47;;;;;;;;;;5089041;28;20243;-80
2021/03/23 05:37:28;;;;;;;16.20;7.53;;;;;;;;;;5100609;27;20231;-79
2021/03/23 05:39:56;;;;;;;11.30;6.80;;;;;;;;;;5103416;27;20224;-80
2021/03/23 05:42:29;;;;;;;14.40;6.70;;;;;;;;;;5109468;27;20224;-79
2021/03/23 05:45:04;;;;;;;14.00;7.00;;;;;;;;;;5079063;28;20251;-78
2021/03/23 05:47:34;;;;;;;11.23;7.03;;;;;;;;;;5075180;28;20246;-79
2021/03/23 05:50:09;;;;;;;11.83;6.40;;;;;;;;;;5104409;28;20226;-79
2021/03/23 05:52:39;;;;;;;13.53;7.17;;;;;;;;;;5092840;28;20238;-78
2021/03/23 05:55:24;;;;;;;12.87;6.70;;;;;;;;;;5108730;28;20228;-80
2021/03/23 05:57:52;;;;;;;15.63;6.87;;;;;;;;;;5075171;28;20233;-79
2021/03/23 06:00:25;;;;;;;12.20;7.00;;;;;;;;;;5093171;28;20228;-78
2021/03/23 06:02:59;;;;;;;12.77;7.20;;;;;;;;;;5083512;28;20226;-79
2021/03/23 06:05:36;;;;;;;14.73;7.00;;;;;;;;;;5098641;28;20227;-80
2021/03/23 06:08:23;;;;;;;14.40;7.53;;;;;;;;;;5112377;28;21169;-80
2021/03/23 06:11:12;;;;;;;13.83;7.17;;;;;;;;;;5116123;28;20232;-81
2021/03/23 06:13:47;;;;;;;14.13;7.37;;;;;;;;;;5075579;27;20618;-80
2021/03/23 06:16:28;;;;;;;13.77;6.90;;;;;;;;;;5059451;28;20226;-80
2021/03/23 06:19:01;;;;;;;13.23;7.63;;;;;;;;;;5096469;28;20227;-80
2021/03/23 06:21:32;;;;;;;13.13;7.90;;;;;;;;;;5080162;28;20281;-80
2021/03/23 06:24:05;;;;;;;13.07;7.10;;;;;;;;;;5083681;28;20227;-80
2021/03/23 06:26:40;;;;;;;17.93;8.57;;;;;;;;;;5078506;27;20210;-80
2021/03/23 06:29:19;;;;;;;13.53;7.57;;;;;;;;;;5103681;27;20227;-80
2021/03/23 06:31:58;;;;;;;16.43;7.17;;;;;;;;;;5077531;27;20227;-80
2021/03/23 06:34:29;;;;;;;12.10;7.10;;;;;;;;;;5095290;27;20222;-80
2021/03/23 06:36:58;;;;;;;15.93;7.73;;;;;;;;;;5084325;28;20237;-80
2021/03/23 06:39:29;;;;;;;14.03;7.30;;;;;;;;;;5095692;27;20698;-80
2021/03/23 06:41:58;;;;;;;13.57;7.13;;;;;;;;;;5104894;27;20231;-81
2021/03/23 06:44:29;;;;;;;15.10;7.33;;;;;;;;;;5107338;28;20219;-80
2021/03/23 06:46:58;;;;;;;16.93;7.20;;;;;;;;;;5110491;28;20248;-80
2021/03/23 06:49:31;;;;;;;14.83;7.30;;;;;;;;;;5099301;27;20226;-80
2021/03/23 06:52:06;;;;;;;13.50;6.90;;;;;;;;;;5102409;28;20592;-80
2021/03/23 06:54:35;;;;;;;14.07;6.90;;;;;;;;;;5108287;27;20231;-80
2021/03/23 06:57:06;;;;;;;18.83;7.87;;;;;;;;;;5080331;28;20236;-80
2021/03/23 06:59:45;;;;;;;13.67;7.40;;;;;;;;;;5097496;27;20239;-80
2021/03/23 07:02:28;;;;;;;18.90;6.97;;;;;;;;;;5102827;27;20228;-80
2021/03/23 07:04:58;;;;;;;105.23;12.50;;;;;;;;;;5097006;27;20224;-80
2021/03/23 07:07:26;;;;;;;13.63;7.17;;;;;;;;;;5096871;27;20254;-80
2021/03/23 07:09:55;;;;;;;14.87;7.87;;;;;;;;;;5096673;27;20220;-80
2021/03/23 07:12:37;;;;;;;21.00;8.50;;;;;;;;;;5081405;28;20235;-79
2021/03/23 07:15:11;;;;;;;22.57;7.57;;;;;;;;;;5075640;28;20401;-80
2021/03/23 07:17:43;;;;;;;16.53;7.13;;;;;;;;;;5093780;27;20221;-80
2021/03/23 07:20:23;;;;;;;15.80;7.07;;;;;;;;;;4969944;28;21099;-80
2021/03/23 07:22:52;;;;;;;11.03;7.57;;;;;;;;;;4932343;27;20822;-80
2021/03/23 07:25:37;;;;;;;17.13;7.20;;;;;;;;;;4947508;27;20276;-80
2021/03/23 07:28:34;;;;;;;15.73;6.83;;;;;;;;;;4925946;28;20598;-80
2021/03/23 07:31:14;;;;;;;14.77;7.27;;;;;;;;;;4917789;28;20356;-80
2021/03/23 07:33:48;;;;;;;11.07;6.27;;;;;;;;;;4885119;28;21101;-80
2021/03/23 07:36:23;;;;;;;19.03;6.60;;;;;;;;;;4885452;28;20257;-80
2021/03/23 07:38:55;;;;;;;13.53;5.63;;;;;;;;;;4925388;27;24117;-80
2021/03/23 07:41:25;;;;;;;14.73;5.67;;;;;;;;;;4926751;28;21655;-80
2021/03/23 07:43:58;;;;;;;16.80;6.17;;;;;;;;;;4929143;27;20681;-81
2021/03/23 07:46:33;;;;;;;12.80;6.27;;;;;;;;;;4936787;28;26020;-80
2021/03/23 07:49:11;;;;;;;12.70;5.83;;;;;;;;;;4956364;27;20846;-80
2021/03/23 07:51:46;;;;;;;11.33;5.90;;;;;;;;;;4928891;27;20260;-80
2021/03/23 07:54:27;;;;;;;13.43;6.03;;;;;;;;;;4949414;27;20512;-80
2021/03/23 07:57:30;;;;;;;19.67;7.03;;;;;;;;;;4980151;27;20275;-80
2021/03/23 08:00:23;;;;;;;12.43;6.17;;;;;;;;;;4949245;28;20244;-80
2021/03/23 08:03:11;;;;;;;14.63;6.60;;;;;;;;;;4939913;28;21155;-80
2021/03/23 08:05:49;;;;;;;14.40;6.37;;;;;;;;;;4951826;28;21393;-80
2021/03/23 08:08:34;;;;;;;12.93;6.47;;;;;;;;;;4949624;28;20243;-80
2021/03/23 08:11:10;;;;;;;15.37;6.63;;;;;;;;;;4947144;27;21070;-79
2021/03/23 08:14:00;;;;;;;14.53;6.73;;;;;;;;;;4932038;27;20245;-80
2021/03/23 08:16:40;;;;;;;11.20;5.93;;;;;;;;;;4956734;28;20269;-80
2021/03/23 08:19:28;;;;;;;15.20;6.30;;;;;;;;;;4935726;28;20716;-80
2021/03/23 08:22:14;;;;;;;9.17;6.50;;;;;;;;;;4949433;27;20240;-80
2021/03/23 08:24:53;;;;;;;11.03;6.70;;;;;;;;;;4943063;28;21006;-79
2021/03/23 08:27:44;;;;;;;11.57;6.80;;;;;;;;;;4945155;27;20359;-79
2021/03/23 08:30:23;;;;;;;13.60;6.83;;;;;;;;;;4902340;27;20340;-80
2021/03/23 08:32:55;;;;;;;9.47;6.10;;;;;;;;;;4922593;27;20221;-80
2021/03/23 08:35:32;;;;;;;11.43;6.90;;;;;;;;;;4939057;27;20303;-80
2021/03/23 08:38:23;;;;;;;13.50;6.73;;;;;;;;;;4925662;28;20287;-79
2021/03/23 08:40:57;;;;;;;14.43;7.40;;;;;;;;;;4979504;28;22750;-81
2021/03/23 08:43:33;;;;;;;12.50;6.93;;;;;;;;;;4955180;27;20394;-80
2021/03/23 08:46:04;;;;;;;13.83;6.70;;;;;;;;;;4937975;27;20326;-80
2021/03/23 08:48:39;;;;;;;13.80;6.37;;;;;;;;;;4926167;27;20579;-79
2021/03/23 08:51:11;;;;;;;11.83;6.87;;;;;;;;;;4926025;27;20403;-79
2021/03/23 08:53:54;;;;;;;11.13;6.63;;;;;;;;;;4973043;27;20357;-82
2021/03/23 08:56:58;;;;;;;12.07;7.73;;;;;;;;;;4955430;27;20238;-80
2021/03/23 08:59:43;;;;;;;12.83;6.03;;;;;;;;;;4962285;27;20419;-82
2021/03/23 09:02:45;;;;;;;11.30;5.90;;;;;;;;;;4915758;28;20330;-79
2021/03/23 09:05:56;;;;;;;12.30;6.63;;;;;;;;;;4943679;27;20695;-82
2021/03/23 09:08:46;;;;;;;9.97;6.10;;;;;;;;;;4954344;28;20273;-80
2021/03/23 09:12:00;;;;;;;9.77;5.73;;;;;;;;;;4941394;27;21729;-80
2021/03/23 09:14:31;;;;;;;11.67;6.27;;;;;;;;;;4934442;27;20358;-79
2021/03/23 09:17:16;;;;;;;13.37;5.73;;;;;;;;;;4932792;27;21150;-81
2021/03/23 09:19:55;;;;;;;10.00;5.90;;;;;;;;;;4953547;28;21016;-80
2021/03/23 09:22:33;;;;;;;9.33;5.67;;;;;;;;;;4939068;27;20895;-82
2021/03/23 09:25:50;;;;;;;8.33;5.40;;;;;;;;;;4948381;28;20715;-79
2021/03/23 09:28:44;;;;;;;10.53;5.67;;;;;;;;;;4975168;28;21161;-82
2021/03/23 09:31:19;;;;;;;8.63;3.90;;;;;;;;;;5003967;27;20496;-84
2021/03/23 09:33:49;;;;;;;8.67;4.60;;;;;;;;;;5022536;27;20229;-80
2021/03/23 09:36:45;;;;;;;7.07;4.80;;;;;;;;;;4974051;27;20275;-79
2021/03/23 09:39:50;;;;;;;8.97;4.50;;;;;;;;;;4958802;27;20232;-80
2021/03/23 09:42:24;;;;;;;9.23;4.73;;;;;;;;;;4974175;27;20260;-79
2021/03/23 09:45:20;;;;;;;8.40;5.17;;;;;;;;;;4972727;27;21457;-81
2021/03/23 09:47:59;;;;;;;6.67;4.63;;;;;;;;;;4949475;28;21325;-81
2021/03/23 09:50:40;;;;;;;9.53;4.60;;;;;;;;;;4950503;28;20267;-83
2021/03/23 09:53:13;;;;;;;5.27;3.90;;;;;;;;;;4943757;28;21112;-80
2021/03/23 09:55:41;;;;;;;6.80;4.30;;;;;;;;;;4956183;27;20267;-80
2021/03/23 09:58:14;;;;;;;6.53;3.63;;;;;;;;;;4939610;27;20354;-80
2021/03/23 10:00:43;;;;;;;4.27;3.30;;;;;;;;;;4956922;27;20272;-81
2021/03/23 10:03:19;;;;;;;5.93;3.37;;;;;;;;;;4934583;27;20229;-80
2021/03/23 10:05:59;;;;;;;5.67;3.20;;;;;;;;;;4968979;27;20355;-80
2021/03/23 10:08:33;;;;;;;6.47;3.80;;;;;;;;;;4953531;28;20728;-80
2021/03/23 10:11:14;;;;;;;7.93;4.07;;;;;;;;;;4943537;27;20799;-78
2021/03/23 10:13:48;;;;;;;7.70;3.50;;;;;;;;;;4945312;27;20263;-80
2021/03/23 10:16:27;;;;;;;5.93;3.60;;;;;;;;;;4961934;28;20254;-81
2021/03/23 10:19:03;;;;;;;7.30;3.70;;;;;;;;;;4935761;28;20607;-82
2021/03/23 10:21:33;;;;;;;6.10;3.73;;;;;;;;;;4945009;28;25361;-80
2021/03/23 10:24:04;;;;;;;6.37;4.57;;;;;;;;;;4958372;27;20265;-82
2021/03/23 10:26:38;;;;;;;7.80;4.27;;;;;;;;;;4958372;27;20352;-82
2021/03/23 10:29:21;;;;;;;6.43;3.87;;;;;;;;;;4935200;28;20609;-82
2021/03/23 10:31:51;;;;;;;5.70;4.13;;;;;;;;;;4935026;27;20256;-81
2021/03/23 10:34:23;;;;;;;7.63;4.67;;;;;;;;;;4971517;27;20713;-83
2021/03/23 10:36:54;;;;;;;6.10;4.73;;;;;;;;;;4971556;27;20906;-82
2021/03/23 10:39:47;;;;;;;8.63;5.23;;;;;;;;;;4987912;27;20794;-83
2021/03/23 10:42:30;;;;;;;8.27;5.53;;;;;;;;;;4959232;27;20225;-83
2021/03/23 10:45:27;;;;;;;8.90;5.83;;;;;;;;;;4951369;28;20237;-84
2021/03/23 10:48:02;;;;;;;7.60;5.60;;;;;;;;;;4951815;28;20252;-84
2021/03/23 10:50:33;;;;;;;8.47;5.67;;;;;;;;;;4982358;27;20244;-84
2021/03/23 10:53:14;;;;;;;7.10;5.23;;;;;;;;;;4956601;28;20249;-84
2021/03/23 10:55:43;;;;;;;10.30;6.70;;;;;;;;;;4968462;27;20225;-83
2021/03/23 10:58:13;;;;;;;7.87;5.80;;;;;;;;;;4968900;28;20259;-83
2021/03/23 11:00:42;;;;;;;6.47;5.47;;;;;;;;;;4970956;27;24169;-81
2021/03/23 11:03:29;;;;;;;6.22;5.22;;;;;;;;;;4967256;27;21918;-83
2021/03/23 11:05:57;;;;;;;8.85;6.15;;;;;;;;;;4959959;27;20247;-81
2021/03/23 11:08:26;;;;;;;7.65;5.88;;;;;;;;;;5001155;27;20230;-83
2021/03/23 11:10:56;;;;;;;8.05;5.97;;;;;;;;;;4978498;27;20233;-84
2021/03/23 11:13:25;;;;;;;6.55;5.90;;;;;;;;;;4982650;28;20715;-80
2021/03/23 11:15:54;;;;;;;6.25;5.38;;;;;;;;;;5002845;27;20394;-80
2021/03/23 11:18:29;;;;;;;6.40;5.18;;;;;;;;;;4967240;28;24646;-83
2021/03/23 11:20:59;;;;;;;6.18;5.07;;;;;;;;;;4965412;28;20987;-80
2021/03/23 11:23:36;;;;;;;7.60;5.20;;;;;;;;;;4967504;28;21053;-84
2021/03/23 11:26:05;;;;;;;5.43;4.72;;;;;;;;;;4988891;27;20234;-81
2021/03/23 11:28:33;;;;;;;5.50;5.00;;;;;;;;;;4988827;27;20261;-81
2021/03/23 11:31:04;;;;;;;7.20;5.50;;;;;;;;;;4972904;27;20222;-82
2021/03/23 11:33:35;;;;;;;8.15;5.95;;;;;;;;;;5007797;27;20230;-79
2021/03/23 11:36:08;;;;;;;7.50;5.60;;;;;;;;;;4982551;28;21213;-80
2021/03/23 11:38:36;;;;;;;9.32;5.93;;;;;;;;;;5000617;28;20265;-81
2021/03/23 11:41:08;;;;;;;8.13;5.82;;;;;;;;;;5023320;27;21030;-81
2021/03/23 11:43:40;;;;;;;7.32;5.78;;;;;;;;;;4998017;28;21197;-80
2021/03/23 11:46:10;;;;;;;7.18;5.30;;;;;;;;;;5012795;27;20225;-81
2021/03/23 11:48:43;;;;;;;7.95;5.20;;;;;;;;;;5007684;27;20229;-80
2021/03/23 11:51:24;;;;;;;7.78;5.38;;;;;;;;;;5025413;27;20727;-82
2021/03/23 11:53:52;;;;;;;5.68;4.50;;;;;;;;;;5026279;27;20221;-80
2021/03/23 11:56:20;;;;;;;7.13;5.10;;;;;;;;;;5031728;28;20763;-81
2021/03/23 11:58:49;;;;;;;7.00;5.18;;;;;;;;;;5031228;27;20238;-79
2021/03/23 12:01:21;;;;;;;7.20;5.07;;;;;;;;;;5050571;28;20247;-80
2021/03/23 12:03:51;;;;;;;6.35;4.75;;;;;;;;;;5043732;27;20237;-81
2021/03/23 12:06:23;;;;;;;6.35;5.65;;;;;;;;;;5014669;28;20222;-83
2021/03/23 12:08:56;;;;;;;5.63;4.47;;;;;;;;;;5005524;27;20225;-82
2021/03/23 12:11:32;;;;;;;5.78;4.72;;;;;;;;;;5025905;28;20585;-81
2021/03/23 12:14:09;;;;;;;5.07;4.57;;;;;;;;;;5011975;28;20225;-83
2021/03/23 12:16:42;;;;;;;5.25;4.25;;;;;;;;;;5000295;27;20706;-82
2021/03/23 12:19:23;;;;;;;5.72;4.85;;;;;;;;;;4998445;27;21175;-79
2021/03/23 12:21:51;;;;;;;5.70;4.53;;;;;;;;;;4985158;27;20235;-80
2021/03/23 12:24:21;;;;;;;5.28;4.75;;;;;;;;;;4968180;28;21091;-81
2021/03/23 12:26:49;;;;;;;5.80;4.65;;;;;;;;;;4984376;27;21351;-80
2021/03/23 12:29:21;;;;;;;5.43;4.70;;;;;;;;;;4963495;28;20272;-80
2021/03/23 12:31:48;;;;;;;5.00;4.13;;;;;;;;;;4974923;27;20333;-80
2021/03/23 12:34:18;;;;;;;5.88;4.70;;;;;;;;;;4987265;28;20229;-78
2021/03/23 12:36:47;;;;;;;5.05;4.13;;;;;;;;;;4981805;27;21321;-78
2021/03/23 12:39:18;;;;;;;4.60;4.20;;;;;;;;;;4972156;28;20611;-79
2021/03/23 12:41:52;;;;;;;5.35;4.40;;;;;;;;;;4982194;27;20221;-78
2021/03/23 12:44:21;;;;;;;5.82;4.40;;;;;;;;;;5001003;28;20260;-79
2021/03/23 12:46:50;;;;;;;6.88;4.50;;;;;;;;;;5016067;27;20238;-78
2021/03/23 12:49:21;;;;;;;8.95;4.57;;;;;;;;;;5002658;27;20629;-78
2021/03/23 12:51:52;;;;;;;5.13;4.20;;;;;;;;;;4986823;27;20244;-79
2021/03/23 12:54:23;;;;;;;7.05;4.22;;;;;;;;;;4987878;27;20754;-78
2021/03/23 12:56:51;;;;;;;6.13;4.38;;;;;;;;;;4964372;27;20269;-78
2021/03/23 12:59:23;;;;;;;5.72;4.72;;;;;;;;;;4961102;27;21065;-79
2021/03/23 13:01:51;;;;;;;6.00;4.30;;;;;;;;;;4945023;27;21341;-78
2021/03/23 13:04:21;;;;;;;4.65;3.95;;;;;;;;;;4940833;28;21166;-78
2021/03/23 13:06:51;;;;;;;4.80;3.90;;;;;;;;;;4946606;28;20358;-78
2021/03/23 13:09:19;;;;;;;4.85;3.83;;;;;;;;;;4962821;28;20428;-79
2021/03/23 13:11:49;;;;;;;6.78;3.90;;;;;;;;;;4986823;27;20234;-77
2021/03/23 13:14:30;;;;;;;5.68;3.72;;;;;;;;;;5028853;27;20536;-78
2021/03/23 13:16:58;;;;;;;6.78;4.40;;;;;;;;;;5010055;27;20771;-79
2021/03/23 13:19:26;;;;;;;4.75;4.25;;;;;;;;;;5015642;27;20221;-77
2021/03/23 13:21:57;;;;;;;4.70;4.03;;;;;;;;;;4955514;28;20221;-79
2021/03/23 13:24:33;;;;;;;5.15;4.05;;;;;;;;;;4942551;28;20256;-78
2021/03/23 13:27:03;;;;;;;6.68;4.50;;;;;;;;;;4923451;28;20835;-79
2021/03/23 13:29:32;;;;;;;4.60;3.80;;;;;;;;;;4953468;28;20935;-79
2021/03/23 13:31:59;;;;;;;5.53;3.78;;;;;;;;;;4941066;28;20319;-78
2021/03/23 13:34:28;;;;;;;5.05;3.75;;;;;;;;;;4977714;28;20282;-82
2021/03/23 13:37:02;;;;;;;5.03;4.03;;;;;;;;;;5050763;28;20229;-80
2021/03/23 13:39:32;;;;;;;6.65;4.03;;;;;;;;;;4971206;28;20226;-77
2021/03/23 13:42:07;;;;;;;4.78;4.18;;;;;;;;;;4970523;28;20224;-80
2021/03/23 13:44:44;;;;;;;4.57;4.15;;;;;;;;;;4959451;27;20225;-77
2021/03/23 13:47:12;;;;;;;4.72;4.20;;;;;;;;;;4982427;27;20463;-78
2021/03/23 13:49:43;;;;;;;4.28;3.55;;;;;;;;;;4956610;28;20236;-79
2021/03/23 13:52:15;;;;;;;4.40;3.90;;;;;;;;;;4973448;28;20320;-78
2021/03/23 13:54:43;;;;;;;5.60;3.80;;;;;;;;;;4963460;28;20356;-78
2021/03/23 13:57:10;;;;;;;5.65;3.78;;;;;;;;;;4988964;27;20269;-78
2021/03/23 13:59:39;;;;;;;5.70;4.00;;;;;;;;;;4987131;28;20749;-78
2021/03/23 14:02:09;;;;;;;5.00;3.60;;;;;;;;;;5003471;28;20237;-79
2021/03/23 14:04:37;;;;;;;4.55;3.83;;;;;;;;;;4989622;28;20239;-77
2021/03/23 14:07:06;;;;;;;4.88;4.05;;;;;;;;;;4990762;28;20256;-80
2021/03/23 14:09:42;;;;;;;5.50;4.00;;;;;;;;;;4976364;28;21092;-78
2021/03/23 14:12:15;;;;;;;8.00;4.15;;;;;;;;;;4939029;28;20237;-78
2021/03/23 14:14:44;;;;;;;4.95;3.80;;;;;;;;;;4943877;28;20962;-78
2021/03/23 14:17:12;;;;;;;6.15;3.80;;;;;;;;;;4953911;28;21646;-78
2021/03/23 14:19:41;;;;;;;4.32;3.17;;;;;;;;;;4933821;28;20611;-78
2021/03/23 14:22:11;;;;;;;5.72;3.75;;;;;;;;;;4929074;28;20622;-78
2021/03/23 14:24:39;;;;;;;4.15;3.50;;;;;;;;;;4939185;28;20325;-78
2021/03/23 14:27:08;;;;;;;4.22;3.38;;;;;;;;;;4916499;28;21912;-78
2021/03/23 14:29:38;;;;;;;5.00;3.78;;;;;;;;;;4939569;28;21506;-79
2021/03/23 14:32:08;;;;;;;5.35;3.58;;;;;;;;;;4954460;28;20276;-79
2021/03/23 14:34:36;;;;;;;4.28;3.28;;;;;;;;;;4940406;28;20950;-80
2021/03/23 14:37:04;;;;;;;5.00;3.50;;;;;;;;;;4942996;28;22110;-80
2021/03/23 14:39:36;;;;;;;4.50;3.10;;;;;;;;;;4955008;28;20593;-84
2021/03/23 14:42:06;;;;;;;5.50;3.08;;;;;;;;;;4995241;28;20234;-81
2021/03/23 14:44:37;;;;;;;3.77;2.90;;;;;;;;;;5054596;28;20222;-81
2021/03/23 14:47:16;;;;;;;4.03;2.90;;;;;;;;;;5068488;28;20249;-81
2021/03/23 14:49:44;;;;;;;4.97;3.07;;;;;;;;;;5093493;28;20240;-84
2021/03/23 14:52:15;;;;;;;4.13;3.00;;;;;;;;;;5074938;28;20218;-83
2021/03/23 14:54:44;;;;;;;6.00;2.93;;;;;;;;;;5052185;28;20280;-81
2021/03/23 14:57:17;;;;;;;3.80;2.87;;;;;;;;;;5072762;28;20229;-81
2021/03/23 14:59:46;;;;;;;3.43;2.80;;;;;;;;;;5075582;28;20233;-81
2021/03/23 15:02:14;;;;;;;3.97;2.80;;;;;;;;;;5071343;28;20592;-81
2021/03/23 15:04:42;;;;;;;4.87;3.07;;;;;;;;;;5091838;28;20234;-81
2021/03/23 15:07:19;;;;;;;4.80;3.40;;;;;;;;;;5057693;28;20226;-81
2021/03/23 15:09:47;;;;;;;4.10;2.73;;;;;;;;;;5044871;28;20222;-80
2021/03/23 15:12:15;;;;;;;6.00;3.00;;;;;;;;;;5017604;28;21577;-80